Atwater, California
Current Conditions -  °F | °C
As of 3:03 PM on Saturday 25 Oct 2014 (Local Time) from KMER Reporting Station
Overcast Overcast  
Wind Chill: 16°   Ceiling: 3200
Heat Index: 16°   Visibility: 3mi
Dew Point: 16°   Wind: 14mph
Humidity: 100%   Direction: 330°NNW
Pressure: 30.08"   Gusts: NA
Location:  37.35°N, 120.6°W
Report Text: KMER 252203Z 33012KT 3SM SCT006 BKN032 OVC045 16/16 A3008
Loading
Personal Weather Stations






























Interactive Weather Map New forecast layout! Learn more

10-Day Weather Forecast

Advertisements
Track Severe Weather on mobile